createdAt,value
2022-10-15T00:00:31.572Z,96760.88
2022-10-15T00:03:00.137Z,96754.47
2022-10-15T00:05:28.464Z,96753.50
2022-10-15T00:07:56.709Z,96761.91
2022-10-15T00:10:24.873Z,96771.84
2022-10-15T00:12:53.453Z,96767.13
2022-10-15T00:15:23.115Z,96762.25
2022-10-15T00:17:51.423Z,96755.81
2022-10-15T00:20:19.756Z,96750.59
2022-10-15T00:22:47.988Z,96745.63
2022-10-15T00:25:16.223Z,96738.00
2022-10-15T00:27:44.810Z,96741.06
2022-10-15T00:30:14.040Z,96745.94
2022-10-15T00:32:43.656Z,96745.56
2022-10-15T00:35:11.817Z,96736.97
2022-10-15T00:37:40.360Z,96740.75
2022-10-15T00:40:09.857Z,96736.03
2022-10-15T00:42:38.069Z,96746.91
2022-10-15T00:45:06.877Z,96733.63
2022-10-15T00:47:38.383Z,96732.63
2022-10-15T00:50:09.220Z,96728.56
2022-10-15T00:52:44.024Z,96729.09
2022-10-15T00:55:14.785Z,96735.09
2022-10-15T00:57:43.250Z,96728.50
2022-10-15T01:00:13.015Z,96735.31
2022-10-15T01:02:41.247Z,96730.53
2022-10-15T01:05:11.319Z,96724.75
2022-10-15T01:07:39.537Z,96725.59
2022-10-15T01:10:08.709Z,96715.84
2022-10-15T01:12:45.297Z,96711.91
2022-10-15T01:15:16.967Z,96716.28
2022-10-15T01:17:47.243Z,96717.31
2022-10-15T01:20:49.360Z,96716.66
2022-10-15T01:23:54.177Z,96718.28
2022-10-15T01:26:43.406Z,96726.38
2022-10-15T01:29:17.246Z,96719.88
2022-10-15T01:31:49.546Z,96719.78
2022-10-15T01:36:51.380Z,96716.22
2022-10-15T01:39:23.043Z,96727.88
2022-10-15T01:41:52.885Z,96726.88
2022-10-15T01:44:22.100Z,96728.91
2022-10-15T01:46:54.072Z,96732.25
2022-10-15T01:49:24.765Z,96734.00
2022-10-15T01:51:54.268Z,96721.00
2022-10-15T01:54:22.420Z,96726.06
2022-10-15T01:56:50.883Z,96727.78
2022-10-15T01:59:19.801Z,96728.59
2022-10-15T02:01:48.080Z,96719.34
2022-10-15T02:04:24.281Z,96715.78
2022-10-15T02:06:55.593Z,96713.63
2022-10-15T02:09:28.602Z,96720.13
2022-10-15T02:12:02.687Z,96713.09
2022-10-15T02:14:32.727Z,96703.00
2022-10-15T02:17:04.661Z,96703.97
2022-10-15T02:19:38.095Z,96705.72
2022-10-15T02:22:08.627Z,96706.03
2022-10-15T02:24:37.912Z,96708.38
2022-10-15T02:27:06.236Z,96710.75
2022-10-15T02:29:35.069Z,96713.09
2022-10-15T02:32:03.445Z,96711.28
2022-10-15T02:34:31.858Z,96713.78
2022-10-15T02:37:03.220Z,96711.44
2022-10-15T02:39:31.734Z,96703.34
2022-10-15T02:41:59.991Z,96703.84
2022-10-15T02:44:28.539Z,96707.56
2022-10-15T02:46:56.795Z,96705.50
2022-10-15T02:49:25.112Z,96713.09
2022-10-15T02:51:53.824Z,96720.19
2022-10-15T02:54:23.510Z,96723.09
2022-10-15T02:56:51.744Z,96723.69
2022-10-15T02:59:20.452Z,96721.00
2022-10-15T03:01:48.643Z,96730.06
2022-10-15T03:04:16.847Z,96732.75
2022-10-15T03:06:45.355Z,96731.59
2022-10-15T03:09:13.809Z,96725.19
2022-10-15T03:11:43.498Z,96719.47
2022-10-15T03:14:12.696Z,96733.16
2022-10-15T03:16:40.998Z,96737.16
2022-10-15T03:19:09.275Z,96728.41
2022-10-15T03:21:37.459Z,96732.25
2022-10-15T03:24:05.957Z,96718.75
2022-10-15T03:26:34.291Z,96699.72
2022-10-15T03:29:04.224Z,96696.41
2022-10-15T03:31:33.780Z,96716.22
2022-10-15T03:34:01.959Z,96717.50
2022-10-15T03:36:30.106Z,96714.31
2022-10-15T03:38:59.643Z,96711.06
2022-10-15T03:41:27.827Z,96702.66
2022-10-15T03:43:56.132Z,96696.78
2022-10-15T03:46:25.761Z,96695.31
2022-10-15T03:48:54.027Z,96692.78
2022-10-15T03:51:24.635Z,96693.97
2022-10-15T03:53:55.134Z,96702.91
2022-10-15T03:56:23.326Z,96692.66
2022-10-15T03:58:51.559Z,96698.06
2022-10-15T04:01:20.168Z,96694.66
2022-10-15T04:03:52.851Z,96685.91
2022-10-15T04:06:21.061Z,96677.72
2022-10-15T04:08:49.408Z,96686.28
2022-10-15T04:11:17.666Z,96692.00
2022-10-15T04:13:49.943Z,96703.78
2022-10-15T04:16:18.232Z,96697.03
2022-10-15T04:18:46.439Z,96700.69
2022-10-15T04:21:16.094Z,96704.03
2022-10-15T04:23:44.264Z,96712.66
2022-10-15T04:26:12.530Z,96706.22
2022-10-15T04:28:40.905Z,96711.47
2022-10-15T04:31:09.175Z,96713.47
2022-10-15T04:33:37.397Z,96713.16
2022-10-15T04:36:07.174Z,96710.47
2022-10-15T04:38:36.922Z,96710.28
2022-10-15T04:41:06.731Z,96719.22
2022-10-15T04:43:35.077Z,96723.09
2022-10-15T04:46:04.256Z,96724.09
2022-10-15T04:48:33.398Z,96728.31
2022-10-15T04:51:05.359Z,96727.97
2022-10-15T04:53:33.646Z,96715.69
2022-10-15T04:56:04.105Z,96720.94
2022-10-15T04:58:32.839Z,96724.94
2022-10-15T05:01:02.499Z,96727.16
2022-10-15T05:03:30.951Z,96729.19
2022-10-15T05:06:02.022Z,96708.09
2022-10-15T05:08:30.375Z,96706.56
2022-10-15T05:11:03.317Z,96705.41
2022-10-15T05:13:31.641Z,96699.03
2022-10-15T05:16:03.957Z,96686.94
2022-10-15T05:18:32.183Z,96680.06
2022-10-15T05:21:02.750Z,96676.13
2022-10-15T05:23:30.987Z,96690.16
2022-10-15T05:26:01.132Z,96693.50
2022-10-15T05:28:30.806Z,96698.88
2022-10-15T05:31:04.753Z,96709.34
2022-10-15T05:33:33.007Z,96714.88
2022-10-15T05:36:10.231Z,96709.66
2022-10-15T05:38:38.971Z,96700.25
2022-10-15T05:41:07.251Z,96710.63
2022-10-15T05:43:40.328Z,96713.34
2022-10-15T05:46:09.854Z,96710.00
2022-10-15T05:48:38.036Z,96723.47
2022-10-15T05:51:07.031Z,96723.78
2022-10-15T05:53:35.291Z,96719.75
2022-10-15T05:56:03.507Z,96726.34
2022-10-15T05:58:34.837Z,96727.53
2022-10-15T06:01:07.833Z,96726.69
2022-10-15T06:03:36.519Z,96733.56
2022-10-15T06:06:06.730Z,96735.06
2022-10-15T06:08:35.456Z,96728.84
2022-10-15T06:11:06.965Z,96731.53
2022-10-15T06:13:39.846Z,96725.81
2022-10-15T06:16:09.812Z,96720.78
2022-10-15T06:18:38.730Z,96727.19
2022-10-15T06:21:07.784Z,96721.63
2022-10-15T06:23:36.053Z,96733.06
2022-10-15T06:26:04.714Z,96734.06
2022-10-15T06:28:33.062Z,96738.28
2022-10-15T06:31:01.349Z,96736.25
2022-10-15T06:33:31.067Z,96740.28
2022-10-15T06:36:02.478Z,96743.16
2022-10-15T06:38:30.701Z,96753.91
2022-10-15T06:40:58.929Z,96752.72
2022-10-15T06:43:31.009Z,96761.47
2022-10-15T06:46:01.472Z,96763.97
2022-10-15T06:48:31.129Z,96756.75
2022-10-15T06:50:59.702Z,96759.97
2022-10-15T06:53:28.157Z,96757.75
2022-10-15T06:55:58.625Z,96753.25
2022-10-15T06:58:26.913Z,96759.78
2022-10-15T07:01:00.059Z,96762.63
2022-10-15T07:03:28.911Z,96761.97
2022-10-15T07:06:00.682Z,96757.72
2022-10-15T07:08:28.895Z,96767.69
2022-10-15T07:10:57.169Z,96765.66
2022-10-15T07:13:25.454Z,96772.56
2022-10-15T07:15:56.060Z,96769.34
2022-10-15T07:18:24.440Z,96770.38
2022-10-15T07:20:52.616Z,96759.75
2022-10-15T07:23:25.520Z,96762.97
2022-10-15T07:25:56.253Z,96762.78
2022-10-15T07:28:24.668Z,96771.06
2022-10-15T07:30:53.557Z,96770.03
2022-10-15T07:33:21.851Z,96771.06
2022-10-15T07:35:50.063Z,96770.03
2022-10-15T07:38:18.473Z,96771.22
2022-10-15T07:40:48.097Z,96771.41
2022-10-15T07:43:17.245Z,96769.03
2022-10-15T07:45:49.475Z,96771.72
2022-10-15T07:48:17.786Z,96780.47
2022-10-15T07:50:46.049Z,96766.34
2022-10-15T07:53:15.368Z,96765.34
2022-10-15T07:55:45.534Z,96770.19
2022-10-15T07:58:15.484Z,96764.16
2022-10-15T08:00:43.736Z,96754.59
2022-10-15T08:03:12.015Z,96760.78
2022-10-15T08:05:40.236Z,96767.34
2022-10-15T08:08:08.781Z,96760.78
2022-10-15T08:10:37.375Z,96767.53
2022-10-15T08:13:05.613Z,96765.81
2022-10-15T08:15:35.251Z,96770.38
2022-10-15T08:18:03.824Z,96764.16
2022-10-15T08:20:32.045Z,96770.22
2022-10-15T08:23:00.305Z,96759.09
2022-10-15T08:25:28.559Z,96770.06
2022-10-15T08:27:57.667Z,96758.59
2022-10-15T08:30:25.959Z,96763.66
2022-10-15T08:32:55.641Z,96759.44
2022-10-15T08:35:23.807Z,96756.25
2022-10-15T08:37:55.263Z,96750.66
2022-10-15T08:40:23.528Z,96749.63
2022-10-15T08:42:52.480Z,96745.78
2022-10-15T08:45:23.672Z,96748.28
2022-10-15T08:47:52.909Z,96749.50
2022-10-15T08:50:29.048Z,96751.66
2022-10-15T08:52:57.543Z,96748.59
2022-10-15T08:55:25.796Z,96749.59
2022-10-15T08:57:55.611Z,96746.06
2022-10-15T09:00:28.043Z,96744.81
2022-10-15T09:03:03.017Z,96750.22
2022-10-15T09:05:37.895Z,96752.31
2022-10-15T09:08:12.663Z,96750.78
2022-10-15T09:11:13.085Z,96753.31
2022-10-15T09:14:17.989Z,96759.69
2022-10-15T09:16:49.761Z,96753.44
2022-10-15T09:19:19.015Z,96750.50
2022-10-15T09:21:49.272Z,96749.81
2022-10-15T09:24:20.764Z,96744.28
2022-10-15T09:27:02.547Z,96751.00
2022-10-15T09:29:33.835Z,96740.31
2022-10-15T09:32:10.323Z,96739.16
2022-10-15T09:34:41.281Z,96744.81
2022-10-15T09:37:15.374Z,96742.88
2022-10-15T09:40:14.607Z,96746.53
2022-10-15T09:42:42.927Z,96733.75
2022-10-15T09:45:14.309Z,96737.09
2022-10-15T09:47:54.091Z,96729.19
2022-10-15T09:50:25.432Z,96731.13
2022-10-15T09:53:04.806Z,96720.41
2022-10-15T09:55:36.973Z,96720.94
2022-10-15T09:58:09.969Z,96725.69
2022-10-15T10:00:55.207Z,96726.56
2022-10-15T10:03:25.824Z,96723.69
2022-10-15T10:06:05.510Z,96723.41
2022-10-15T10:08:36.740Z,96721.09
2022-10-15T10:11:06.169Z,96725.03
2022-10-15T10:13:36.109Z,96732.03
2022-10-15T10:16:05.303Z,96721.44
2022-10-15T10:18:35.005Z,96729.28
2022-10-15T10:21:03.773Z,96726.75
2022-10-15T10:23:34.748Z,96726.34
2022-10-15T10:26:06.133Z,96734.78
2022-10-15T10:28:39.363Z,96725.88
2022-10-15T10:31:11.633Z,96713.81
2022-10-15T10:33:52.375Z,96709.44
2022-10-15T10:36:21.797Z,96711.66
2022-10-15T10:38:57.114Z,96713.69
2022-10-15T10:41:26.800Z,96706.03
2022-10-15T10:43:55.995Z,96701.22
2022-10-15T10:46:24.923Z,96705.09
2022-10-15T10:48:53.788Z,96695.69
2022-10-15T10:51:26.545Z,96698.19
2022-10-15T10:53:56.949Z,96688.63
2022-10-15T10:56:29.689Z,96685.38
2022-10-15T10:59:00.527Z,96697.00
2022-10-15T11:01:29.172Z,96699.84
2022-10-15T11:03:57.593Z,96707.25
2022-10-15T11:06:41.456Z,96689.06
2022-10-15T11:09:17.227Z,96691.25
2022-10-15T11:11:52.127Z,96695.13
2022-10-15T11:14:24.367Z,96696.88
2022-10-15T11:16:55.297Z,96690.97
2022-10-15T11:19:54.671Z,96682.69
2022-10-15T11:22:28.248Z,96690.09
2022-10-15T11:25:07.563Z,96691.75
2022-10-15T11:27:46.017Z,96686.03
2022-10-15T11:30:21.389Z,96686.03
2022-10-15T11:33:06.801Z,96678.22
2022-10-15T11:35:52.998Z,96683.06
2022-10-15T11:38:27.053Z,96665.28
2022-10-15T11:41:13.539Z,96678.50
2022-10-15T11:43:52.700Z,96675.16
2022-10-15T11:46:23.075Z,96667.59
2022-10-15T11:48:58.300Z,96666.50
2022-10-15T11:51:30.838Z,96658.56
2022-10-15T11:54:10.304Z,96660.53
2022-10-15T11:56:39.782Z,96656.44
2022-10-15T11:59:17.147Z,96657.94
2022-10-15T12:01:46.786Z,96657.00
2022-10-15T12:04:18.737Z,96664.22
2022-10-15T12:06:48.915Z,96657.25
2022-10-15T12:09:18.251Z,96649.78
2022-10-15T12:11:48.843Z,96651.00
2022-10-15T12:14:22.885Z,96648.28
2022-10-15T12:16:56.083Z,96636.31
2022-10-15T12:19:26.815Z,96647.41
2022-10-15T12:22:09.778Z,96645.31
2022-10-15T12:24:54.141Z,96634.81
2022-10-15T12:27:34.774Z,96635.38
2022-10-15T12:30:26.067Z,96641.22
2022-10-15T12:32:55.498Z,96629.59
2022-10-15T12:35:35.364Z,96632.25
2022-10-15T12:38:28.507Z,96633.69
2022-10-15T12:40:58.664Z,96641.03
2022-10-15T12:43:40.293Z,96638.34
2022-10-15T12:46:11.023Z,96632.94
2022-10-15T12:48:41.096Z,96639.09
2022-10-15T12:51:39.704Z,96634.81
2022-10-15T12:54:35.544Z,96638.63
2022-10-15T12:57:06.628Z,96630.97
2022-10-15T12:59:56.774Z,96619.72
2022-10-15T13:05:26.692Z,96627.06
2022-10-15T13:07:57.376Z,96630.94
2022-10-15T13:10:28.865Z,96625.59
2022-10-15T13:12:58.339Z,96627.50
2022-10-15T13:15:34.400Z,96621.53
2022-10-15T13:18:09.458Z,96624.63
2022-10-15T13:20:38.407Z,96628.69
2022-10-15T13:23:28.994Z,96630.25
2022-10-15T13:26:15.605Z,96627.81
2022-10-15T13:28:44.236Z,96625.81
2022-10-15T13:31:17.273Z,96638.13
2022-10-15T13:33:47.798Z,96627.63
2022-10-15T13:36:20.381Z,96631.03
2022-10-15T13:38:53.540Z,96629.88
2022-10-15T13:41:25.706Z,96634.56
2022-10-15T13:43:58.734Z,96638.03
2022-10-15T13:46:27.506Z,96637.31
2022-10-15T13:49:03.587Z,96637.91
2022-10-15T13:51:35.990Z,96630.34
2022-10-15T13:54:04.624Z,96628.16
2022-10-15T13:56:33.276Z,96638.97
2022-10-15T13:59:01.684Z,96633.88
2022-10-15T14:01:30.329Z,96638.50
2022-10-15T14:04:00.782Z,96629.88
2022-10-15T14:06:29.884Z,96634.84
2022-10-15T14:08:59.061Z,96626.16
2022-10-15T14:11:27.445Z,96621.00
2022-10-15T14:13:56.851Z,96625.97
2022-10-15T14:16:28.185Z,96630.41
2022-10-15T14:18:57.887Z,96630.44
2022-10-15T14:21:32.019Z,96630.84
2022-10-15T14:24:07.149Z,96629.13
2022-10-15T14:26:35.543Z,96627.50
2022-10-15T14:29:03.804Z,96624.16
2022-10-15T14:31:34.465Z,96632.91
2022-10-15T14:34:03.262Z,96624.97
2022-10-15T14:36:33.527Z,96627.28
2022-10-15T14:39:30.634Z,96627.75
2022-10-15T14:42:00.107Z,96626.22
2022-10-15T14:44:29.030Z,96632.47
2022-10-15T14:47:01.766Z,96640.72
2022-10-15T14:49:30.896Z,96625.19
2022-10-15T14:52:05.987Z,96633.25
2022-10-15T14:54:37.462Z,96629.97
2022-10-15T14:57:06.022Z,96629.56
2022-10-15T14:59:37.573Z,96635.94
2022-10-15T15:02:05.916Z,96633.47
2022-10-15T15:04:36.190Z,96623.00
2022-10-15T15:07:08.470Z,96617.00
2022-10-15T15:09:36.658Z,96624.97
2022-10-15T15:12:05.179Z,96625.56
2022-10-15T15:14:34.440Z,96627.69
2022-10-15T15:17:02.724Z,96638.50
2022-10-15T15:19:30.947Z,96645.09
2022-10-15T15:21:59.331Z,96647.97
2022-10-15T15:24:40.497Z,96640.06
2022-10-15T15:27:08.739Z,96641.66
2022-10-15T15:29:51.769Z,96643.47
2022-10-15T15:32:22.990Z,96642.56
2022-10-15T15:34:52.316Z,96649.84
2022-10-15T15:37:21.342Z,96650.69
2022-10-15T15:39:51.002Z,96651.84
2022-10-15T15:42:20.355Z,96644.81
2022-10-15T15:44:48.635Z,96642.78
2022-10-15T15:47:17.217Z,96655.66
2022-10-15T15:49:45.493Z,96656.94
2022-10-15T15:52:14.279Z,96654.44
2022-10-15T15:54:43.020Z,96666.72
2022-10-15T15:57:12.700Z,96674.34
2022-10-15T15:59:40.993Z,96678.84
2022-10-15T16:02:09.432Z,96686.00
2022-10-15T16:04:38.292Z,96694.75
2022-10-15T16:07:09.021Z,96686.97
2022-10-15T16:09:40.081Z,96697.50
2022-10-15T16:12:08.315Z,96709.25
2022-10-15T16:14:37.988Z,96705.25
2022-10-15T16:17:06.516Z,96712.72
2022-10-15T16:19:34.788Z,96710.25
2022-10-15T16:22:03.038Z,96717.41
2022-10-15T16:24:31.281Z,96721.06
2022-10-15T16:26:59.558Z,96722.75
2022-10-15T16:29:27.845Z,96723.78
2022-10-15T16:31:57.609Z,96728.16
2022-10-15T16:34:26.193Z,96734.59
2022-10-15T16:36:54.503Z,96727.75
2022-10-15T16:39:22.735Z,96737.66
2022-10-15T16:41:51.032Z,96736.16
2022-10-15T16:44:19.262Z,96736.44
2022-10-15T16:46:47.507Z,96740.56
2022-10-15T16:49:17.547Z,96736.16
2022-10-15T16:51:45.921Z,96736.06
2022-10-15T16:54:15.610Z,96737.94
2022-10-15T16:56:45.397Z,96747.72
2022-10-15T16:59:16.058Z,96756.94
2022-10-15T17:01:44.385Z,96769.16
2022-10-15T17:04:12.802Z,96770.72
2022-10-15T17:06:42.430Z,96777.81
2022-10-15T17:09:10.706Z,96789.81
2022-10-15T17:11:41.813Z,96791.88
2022-10-15T17:14:11.243Z,96798.03
2022-10-15T17:16:40.231Z,96810.50
2022-10-15T17:19:09.522Z,96812.75
2022-10-15T17:21:40.379Z,96812.00
2022-10-15T17:24:14.580Z,96823.50
2022-10-15T17:26:43.558Z,96830.72
2022-10-15T17:29:12.975Z,96834.53
2022-10-15T17:31:41.560Z,96841.81
2022-10-15T17:34:11.682Z,96843.16
2022-10-15T17:36:44.929Z,96854.03
2022-10-15T17:39:15.280Z,96856.41
2022-10-15T17:41:43.509Z,96865.34
2022-10-15T17:44:12.055Z,96873.53
2022-10-15T17:46:40.397Z,96886.72
2022-10-15T17:49:09.805Z,96890.78
2022-10-15T17:51:38.098Z,96895.22
2022-10-15T17:54:06.668Z,96909.38
2022-10-15T17:56:36.990Z,96925.03
2022-10-15T17:59:06.074Z,96923.72
2022-10-15T18:04:24.314Z,96919.59
2022-10-15T18:06:52.554Z,96916.56
2022-10-15T18:09:20.725Z,96908.06
2022-10-15T18:11:50.599Z,96909.84
2022-10-15T18:16:51.958Z,96915.88
2022-10-15T18:19:22.158Z,96925.81
2022-10-15T18:21:50.364Z,96935.50
2022-10-15T18:24:21.786Z,96935.41
2022-10-15T18:26:52.306Z,96940.13
2022-10-15T18:29:20.552Z,96930.00
2022-10-15T18:31:52.219Z,96926.66
2022-10-15T18:34:23.173Z,96923.88
2022-10-15T18:36:51.375Z,96930.09
2022-10-15T18:39:19.599Z,96931.16
2022-10-15T18:41:47.842Z,96920.75
2022-10-15T18:44:18.189Z,96932.31
2022-10-15T18:46:46.816Z,96935.84
2022-10-15T18:49:15.487Z,96939.00
2022-10-15T18:51:45.972Z,96931.09
2022-10-15T18:54:14.739Z,96937.19
2022-10-15T18:56:42.902Z,96946.56
2022-10-15T18:59:11.336Z,96943.63
2022-10-15T19:01:42.070Z,96935.03
2022-10-15T19:04:11.875Z,96939.75
2022-10-15T19:06:41.114Z,96945.00
2022-10-15T19:09:10.192Z,96945.84
2022-10-15T19:11:38.592Z,96954.59
2022-10-15T19:14:06.916Z,96944.66
2022-10-15T19:16:35.465Z,96942.34
2022-10-15T19:19:07.539Z,96933.59
2022-10-15T19:21:37.695Z,96942.00
2022-10-15T19:24:06.424Z,96955.81
2022-10-15T19:26:35.316Z,96964.56
2022-10-15T19:29:03.708Z,96979.53
2022-10-15T19:31:33.130Z,96980.38
2022-10-15T19:34:01.481Z,96962.38
2022-10-15T19:36:32.362Z,96977.69
2022-10-15T19:39:02.332Z,96971.47
2022-10-15T19:41:30.656Z,96977.53
2022-10-15T19:43:58.886Z,96982.91
2022-10-15T19:46:29.388Z,96982.72
2022-10-15T19:48:57.835Z,96981.91
2022-10-15T19:51:26.093Z,96979.88
2022-10-15T19:53:56.658Z,96977.72
2022-10-15T19:56:25.739Z,96984.78
2022-10-15T19:58:55.718Z,96982.41
2022-10-15T20:01:24.001Z,96982.09
2022-10-15T20:03:52.635Z,96982.25
2022-10-15T20:06:21.057Z,96982.06
2022-10-15T20:08:49.299Z,96984.91
2022-10-15T20:11:19.205Z,96982.88
2022-10-15T20:13:47.458Z,96980.38
2022-10-15T20:16:18.470Z,96984.41
2022-10-15T20:18:49.066Z,96987.44
2022-10-15T20:21:17.312Z,96988.44
2022-10-15T20:23:46.894Z,96996.38
2022-10-15T20:26:15.761Z,96996.88
2022-10-15T20:28:45.959Z,97003.44
2022-10-15T20:31:16.352Z,96997.69
2022-10-15T20:33:44.739Z,96995.16
2022-10-15T20:36:16.397Z,97012.69
2022-10-15T20:38:46.165Z,97016.72
2022-10-15T20:41:15.099Z,97021.09
2022-10-15T20:43:45.445Z,97021.25
2022-10-15T20:46:14.576Z,97022.78
2022-10-15T20:48:43.071Z,97032.03
2022-10-15T20:51:11.306Z,97034.19
2022-10-15T20:53:39.458Z,97031.19
2022-10-15T20:56:08.784Z,97030.50
2022-10-15T20:58:37.363Z,97041.94
2022-10-15T21:01:07.956Z,97049.19
2022-10-15T21:03:36.306Z,97053.72
2022-10-15T21:06:04.575Z,97054.28
2022-10-15T21:08:32.777Z,97068.22
2022-10-15T21:11:04.927Z,97067.19
2022-10-15T21:13:33.179Z,97065.34
2022-10-15T21:16:01.933Z,97071.25
2022-10-15T21:18:31.573Z,97071.94
2022-10-15T21:21:02.293Z,97078.47
2022-10-15T21:23:30.510Z,97074.28
2022-10-15T21:26:00.485Z,97084.84
2022-10-15T21:28:29.224Z,97084.59
2022-10-15T21:30:57.576Z,97091.13
2022-10-15T21:33:25.830Z,97091.44
2022-10-15T21:35:55.911Z,97093.78
2022-10-15T21:38:24.118Z,97085.88
2022-10-15T21:40:53.916Z,97086.72
2022-10-15T21:43:24.691Z,97081.34
2022-10-15T21:45:54.269Z,97074.09
2022-10-15T21:48:22.581Z,97082.47
2022-10-15T21:50:50.787Z,97089.88
2022-10-15T21:53:20.415Z,97086.06
2022-10-15T21:55:54.043Z,97093.78
2022-10-15T21:58:22.415Z,97088.56
2022-10-15T22:00:50.725Z,97089.88
2022-10-15T22:03:18.958Z,97101.63
2022-10-15T22:05:47.737Z,97085.53
2022-10-15T22:08:15.993Z,97096.50
2022-10-15T22:10:46.915Z,97093.50
2022-10-15T22:13:15.925Z,97099.53
2022-10-15T22:15:49.851Z,97108.66
2022-10-15T22:18:18.087Z,97106.28
2022-10-15T22:20:46.419Z,97101.38
2022-10-15T22:23:14.698Z,97094.78
2022-10-15T22:25:43.292Z,97098.19
2022-10-15T22:28:13.193Z,97103.91
2022-10-15T22:30:41.475Z,97106.41
2022-10-15T22:33:09.805Z,97106.94
2022-10-15T22:35:39.381Z,97097.50
2022-10-15T22:38:07.637Z,97099.78
2022-10-15T22:40:35.922Z,97092.25
2022-10-15T22:43:04.469Z,97090.91
2022-10-15T22:45:34.352Z,97089.88
2022-10-15T22:48:02.531Z,97086.56
2022-10-15T22:50:30.901Z,97082.50
2022-10-15T22:52:59.186Z,97082.72
2022-10-15T22:55:27.638Z,97088.44
2022-10-15T22:57:56.042Z,97088.59
2022-10-15T23:00:24.599Z,97095.13
2022-10-15T23:02:54.935Z,97101.47
2022-10-15T23:05:23.193Z,97094.25
2022-10-15T23:07:51.503Z,97087.59
2022-10-15T23:10:19.916Z,97102.53
2022-10-15T23:12:48.689Z,97101.88
2022-10-15T23:15:16.997Z,97107.41
2022-10-15T23:17:45.264Z,97099.66
2022-10-15T23:20:15.009Z,97106.88
2022-10-15T23:22:43.275Z,97100.59
2022-10-15T23:25:11.553Z,97111.91
2022-10-15T23:27:39.864Z,97102.16
2022-10-15T23:30:14.636Z,97101.28
2022-10-15T23:32:52.551Z,97104.84
2022-10-15T23:35:23.555Z,97096.41
2022-10-15T23:37:51.808Z,97112.75
2022-10-15T23:40:20.104Z,97104.84
2022-10-15T23:42:48.741Z,97105.47
2022-10-15T23:45:16.973Z,97095.75
2022-10-15T23:47:45.177Z,97099.78
2022-10-15T23:50:13.516Z,97094.13
2022-10-15T23:52:43.171Z,97091.44
2022-10-15T23:55:11.365Z,97086.53
2022-10-15T23:57:39.605Z,97090.41
